Date,TemperatureHighF,TemperatureAvgF,TemperatureLowF,DewpointHighF,DewpointAvgF,DewpointLowF,HumidityHigh,HumidityAvg,HumidityLow,PressureMaxIn,PressureMinIn,WindSpeedMaxMPH,WindSpeedAvgMPH,GustSpeedMaxMPH,PrecipitationSumIn
2013-1-1,67.5,58.5,48.2,66.3,55.4,43.3,98,89,79,30.16,29.84,19,9,30,0.05
2013-1-2,48.2,42.3,40.2,43.6,38.9,36.8,94,88,75,30.29,30.14,16,8,27,0.15
2013-1-3,49.3,45.3,42.0,38.3,36.7,33.2,86,73,56,30.38,30.26,15,9,24,0.15
2013-1-4,49.5,47.7,44.8,40.7,39.5,37.8,84,73,67,30.41,30.30,18,11,27,0.00
2013-1-5,48.4,46.4,44.2,45.9,42.9,38.5,94,88,74,30.33,30.22,13,8,21,0.00
2013-1-6,59.3,50.1,43.2,48.3,45.0,41.7,96,83,60,30.32,30.23,13,6,19,0.00
2013-1-7,58.1,46.5,42.9,54.2,32.3,-99.9,97,79,80,30.28,29.95,9,-111,16,0.01
2013-1-8,64.7,50.6,53.8,63.8,32.3,-99.9,99,80,96,29.95,29.77,18,-172,24,0.02
2013-1-9,66.4,59.0,57.1,66.4,54.7,-99.9,100,94,93,30.04,29.78,19,-32,22,0.87
2013-1-10,62.4,57.9,52.4,57.6,53.6,49.4,98,86,69,30.10,30.00,8,4,14,0.01
2013-1-11,68.8,63.1,54.5,67.2,61.9,53.3,99,96,90,30.01,29.80,10,4,13,0.00
2013-1-12,70.8,68.3,65.4,69.5,67.6,65.1,99,98,95,29.82,29.62,17,10,31,0.00
2013-1-13,68.5,53.0,44.2,67.9,45.1,39.0,98,76,57,30.08,29.71,19,12,28,0.02
2013-1-14,49.0,44.4,41.4,43.5,40.0,36.7,94,85,72,30.17,30.03,16,10,22,0.00
2013-1-15,45.0,42.0,40.1,43.4,40.2,35.5,97,93,80,30.21,30.02,15,10,24,0.04
2013-1-16,56.7,45.4,36.1,36.1,27.9,20.9,81,53,25,30.35,30.19,14,8,31,0.00
2013-1-17,63.2,50.3,38.2,48.2,37.6,24.3,89,63,37,30.44,30.29,11,4,16,0.00
2013-1-18,59.5,48.9,41.6,50.5,45.7,39.2,95,89,72,30.48,30.29,10,4,12,0.00
2013-1-19,65.8,58.2,51.1,56.5,53.6,49.4,95,85,68,30.29,30.15,8,3,13,0.00
2013-1-20,67.8,53.5,49.8,59.2,38.0,-99.9,100,76,72,30.23,30.09,9,-114,12,0.00
2013-1-21,66.4,60.1,55.1,59.8,56.8,53.5,96,89,76,30.21,30.09,7,4,10,0.00
2013-1-22,67.6,59.8,51.4,60.6,56.8,50.0,97,90,74,30.28,30.15,10,5,15,0.00
2013-1-23,71.5,63.7,56.5,65.9,61.5,55.4,98,93,81,30.32,30.20,10,4,12,0.00
2013-1-24,72.0,66.4,61.9,66.8,64.0,60.7,96,92,82,30.27,30.13,11,6,19,0.00
2013-1-25,72.9,67.2,63.0,67.8,64.9,62.1,97,92,83,30.15,30.03,11,8,18,0.01
2013-1-26,71.8,67.4,63.8,67.3,64.7,62.9,97,91,83,30.13,30.03,13,8,17,0.00
2013-1-27,70.2,67.4,65.0,68.4,66.1,63.4,98,96,93,30.07,29.96,14,8,21,0.00
2013-1-28,71.9,68.8,66.5,69.3,67.6,65.9,98,96,91,30.06,29.88,17,10,24,0.00
2013-1-29,73.1,70.1,67.1,70.1,67.1,44.6,98,91,44,29.88,29.56,23,15,35,0.00
2013-1-30,67.3,61.4,56.0,45.1,34.4,24.8,49,37,25,30.04,29.75,18,12,27,0.00
2013-2-1,62.5,62.1,61.4,58.6,57.7,56.5,89,86,81,30.21,30.17,6,3,9,0.00
2013-2-2,70.9,64.8,59.6,62.6,60.4,57.3,94,86,71,30.22,30.13,9,3,12,0.00
2013-2-3,68.5,62.4,56.0,62.0,59.7,54.7,98,91,77,30.27,29.98,11,6,18,0.00
2013-2-4,71.3,67.1,63.9,67.3,64.3,61.1,97,91,85,29.99,29.79,10,5,16,0.00
2013-2-5,73.7,67.8,64.4,70.0,66.3,63.5,98,95,85,29.95,29.83,10,5,14,0.00
2013-2-6,68.7,65.4,61.8,68.1,64.4,60.8,100,97,93,29.98,29.79,24,13,30,0.15
2013-2-7,72.8,66.1,63.7,68.5,64.5,62.0,98,95,86,29.98,29.85,10,6,16,0.15
2013-2-8,70.5,62.9,56.2,63.8,56.6,51.7,100,81,53,30.17,29.98,16,7,22,0.00
2013-2-9,68.7,62.7,63.0,67.8,54.4,-99.9,98,88,89,30.03,29.77,15,-50,22,0.00
2013-2-10,69.1,67.1,64.2,68.2,60.4,53.4,98,80,63,29.91,29.72,18,12,23,0.00
2013-2-11,64.5,61.4,57.4,60.3,57.0,52.7,99,86,70,29.97,29.86,25,17,32,0.00
2013-2-12,67.2,60.9,57.9,62.2,59.2,56.9,100,94,82,29.97,29.79,21,6,26,0.00
2013-2-13,59.9,55.4,49.5,58.4,46.5,39.9,97,73,54,30.14,29.95,16,7,27,0.00
2013-2-14,61.7,57.1,48.0,52.8,48.5,43.8,91,74,53,30.13,30.02,11,6,16,0.00
2013-2-15,66.5,61.0,54.1,58.2,52.6,43.0,91,74,54,30.31,30.03,20,9,28,0.00
2013-2-16,61.7,54.1,44.4,46.4,37.1,26.4,69,54,31,30.45,30.26,16,7,22,0.00
2013-2-17,66.5,64.4,63.9,60.3,57.7,53.4,86,79,63,30.10,29.97,12,10,20,0.00
2013-2-18,71.3,67.1,64.4,65.9,63.6,60.3,94,89,82,29.98,29.83,15,9,29,0.00
2013-2-19,65.9,61.7,59.5,63.5,53.2,44.4,96,74,55,30.18,29.98,30,19,40,0.00
2013-2-20,67.7,66.1,63.4,66.5,63.9,58.6,96,93,84,30.01,29.66,17,11,26,0.00
2013-2-21,75.5,70.2,66.8,70.7,64.7,52.8,98,84,52,29.78,29.57,18,10,28,0.00
2013-2-22,68.5,64.4,57.9,54.2,49.9,46.3,70,60,46,29.91,29.81,21,15,30,0.00
2013-2-23,67.8,59.2,51.6,57.6,50.1,42.1,89,72,54,30.00,29.85,15,7,21,0.00
2013-2-24,65.1,62.7,58.0,63.5,61.0,55.1,99,94,86,29.88,29.57,17,9,22,0.00
2013-2-25,71.6,64.1,51.6,65.5,36.5,15.3,99,43,12,29.87,29.52,25,12,49,0.00
2013-2-26,70.4,56.7,43.1,54.7,39.1,24.7,86,55,18,29.99,29.84,9,5,15,0.00
2013-2-27,73.7,61.2,51.5,60.0,46.7,33.8,95,63,24,30.17,29.86,16,6,24,0.00
2013-2-28,58.4,52.7,47.0,37.6,31.8,27.4,69,46,31,30.28,30.16,18,9,30,0.00
2013-3-1,64.2,55.6,43.7,51.3,40.2,30.1,85,58,29,30.26,30.12,10,4,16,0.00
2013-3-2,63.2,54.5,46.8,46.1,35.8,26.1,86,52,25,30.39,30.23,18,10,30,0.00
2013-3-3,66.1,58.8,42.4,56.9,50.1,38.1,88,73,58,30.26,29.97,15,7,22,0.00
2013-3-4,70.8,66.1,62.0,63.7,60.3,56.5,90,82,74,29.97,29.74,18,14,31,0.00
2013-3-5,68.5,61.6,52.7,47.7,35.2,25.8,68,38,23,30.30,30.09,23,13,33,0.00
2013-3-6,58.5,53.3,42.3,54.0,39.4,26.1,85,60,36,30.41,30.19,18,8,24,0.00
2013-3-7,67.3,63.6,58.6,62.0,59.3,53.9,91,86,79,30.20,30.09,15,7,21,0.00
2013-3-8,69.1,65.4,64.6,65.7,60.9,-99.9,94,90,88,30.10,29.97,14,9,20,0.00
2013-3-9,71.8,68.1,66.3,67.7,65.9,64.3,95,92,87,29.97,29.62,20,11,30,0.00
2013-3-10,74.1,66.8,56.5,67.6,54.1,40.7,96,67,32,30.05,29.57,20,12,37,0.05
2013-3-11,69.8,60.2,49.5,47.8,36.2,26.0,67,44,20,30.14,29.98,15,8,27,0.00
2013-3-12,70.1,62.1,49.3,56.7,50.0,43.9,85,65,45,30.20,30.05,11,5,16,0.00
2013-3-13,66.8,62.2,53.8,58.6,54.7,49.0,95,77,54,30.39,30.20,14,8,20,0.00
2013-3-14,71.4,66.1,62.2,61.6,59.7,56.8,90,80,64,30.37,30.24,11,6,15,0.00
2013-3-15,71.5,67.1,63.4,63.7,62.1,60.3,92,84,73,30.24,30.02,15,8,22,0.00
2013-3-16,72.9,68.8,65.8,67.0,64.8,62.3,92,87,78,30.02,29.79,18,11,26,0.00
2013-3-17,74.5,70.2,66.7,69.7,67.5,64.9,97,91,84,29.80,29.65,15,9,20,0.00
2013-3-18,76.2,70.8,67.6,69.6,67.7,65.7,98,90,79,29.85,29.69,12,6,17,0.00
2013-3-19,73.9,69.2,65.0,69.9,66.6,59.6,97,92,82,29.95,29.80,23,12,29,0.00
2013-3-20,72.0,67.3,62.8,67.6,59.6,54.4,96,77,63,30.12,29.86,38,18,48,0.00
2013-3-21,72.4,67.7,64.4,67.7,62.2,-99.9,93,84,76,29.99,29.66,14,8,23,0.00
2013-3-22,74.4,70.8,69.1,71.4,69.0,67.2,97,94,90,29.71,29.60,13,7,23,0.00
2013-3-23,75.0,70.1,66.5,70.6,68.2,64.4,99,94,83,29.67,29.55,13,6,18,0.00
2013-3-24,68.3,61.6,53.4,66.8,42.2,25.1,98,56,23,30.10,29.63,23,13,39,0.00
2013-3-25,59.5,53.3,45.0,37.9,33.2,20.9,68,48,23,30.33,30.10,22,11,32,0.00
2013-3-26,60.9,57.1,51.1,45.8,38.5,32.6,65,50,36,30.44,30.30,24,13,32,0.00
2013-3-27,64.2,61.9,58.5,59.4,52.0,42.9,86,70,56,30.31,30.17,13,8,18,0.00
2013-3-28,69.2,64.0,63.0,63.4,57.5,-99.9,92,85,81,30.20,30.12,12,6,18,0.00
2013-3-29,72.4,68.2,64.2,66.2,64.5,62.4,94,88,79,30.16,30.04,12,7,21,0.00
2013-3-30,75.0,69.7,66.3,69.6,66.9,64.1,96,91,82,30.08,29.92,13,8,21,0.00
2013-3-31,75.1,70.1,67.9,70.8,67.2,-99.9,97,93,86,29.93,29.77,21,10,28,0.00
2013-4-1,72.6,69.4,67.2,69.3,66.9,-99.9,98,94,88,30.00,29.89,12,6,20,0.00
2013-4-2,75.0,65.2,68.8,72.0,54.9,-99.9,97,86,89,29.94,29.75,13,-82,19,0.00
2013-4-3,72.3,64.7,55.2,69.7,59.2,-99.9,97,85,71,30.08,29.76,21,11,27,0.01
2013-4-4,70.3,59.6,53.2,52.1,49.6,47.0,92,72,45,30.15,30.03,18,10,25,0.00
2013-4-5,63.2,55.9,46.4,58.6,48.3,-99.9,89,79,69,30.25,30.06,18,6,25,0.00
2013-4-6,72.2,68.0,63.2,64.9,62.6,58.3,90,83,72,30.06,29.88,15,9,22,0.00
2013-4-7,73.5,70.4,67.3,68.1,66.4,64.6,94,87,78,29.92,29.79,15,10,24,0.00
2013-4-8,74.5,71.3,69.1,70.5,69.1,67.4,96,93,87,29.80,29.65,17,11,22,0.00
2013-4-9,75.2,70.8,70.1,72.4,66.0,-99.9,95,91,87,29.71,29.57,21,13,30,0.00
2013-4-10,77.2,66.5,55.4,73.7,63.3,48.3,97,89,77,29.82,29.59,21,12,31,0.00
2013-4-11,69.5,58.6,45.5,56.0,48.3,41.6,97,70,43,29.93,29.76,24,9,38,0.07
2013-4-12,69.2,58.8,53.7,63.5,45.6,-99.9,94,78,74,29.95,29.85,16,8,24,0.00
2013-4-13,71.7,69.2,66.7,65.6,64.3,62.8,91,85,75,29.92,29.72,18,10,25,0.00
2013-4-14,77.7,70.9,65.5,71.8,67.0,-99.9,96,91,81,29.76,29.64,15,8,21,0.00
2013-4-15,77.3,71.8,70.0,72.9,66.5,-99.9,98,90,83,29.79,29.68,18,11,27,0.00
2013-4-16,75.6,73.4,72.0,73.1,71.7,70.1,98,94,90,29.86,29.74,18,10,27,0.00
2013-4-17,75.3,71.6,72.6,73.6,66.8,-99.9,97,92,92,29.85,29.64,18,12,24,0.00
2013-4-18,75.4,66.6,57.1,73.9,62.8,47.8,98,88,68,30.05,29.60,24,12,40,0.00
2013-4-19,64.7,58.2,52.8,49.2,42.6,31.9,76,57,37,30.28,30.05,20,9,28,0.00
2013-4-20,66.9,58.8,51.4,55.2,40.7,-99.9,80,59,48,30.19,30.02,14,9,17,0.00
2013-4-21,72.6,70.2,67.4,65.5,63.8,61.4,90,80,69,30.09,29.99,18,10,24,0.00
2013-4-22,74.4,70.6,67.5,68.6,66.7,64.3,94,88,78,30.06,29.90,14,9,19,0.00
2013-4-23,75.1,69.1,69.7,71.3,60.0,-99.9,96,90,86,29.95,29.84,15,10,21,0.00
2013-4-24,72.7,56.0,48.7,71.5,51.7,-99.9,96,87,78,30.17,29.93,21,11,33,0.00
2013-4-25,67.7,63.2,61.3,66.8,57.8,51.0,97,83,66,30.25,30.11,22,13,30,0.01
2013-4-26,74.2,70.5,67.7,71.4,66.4,-99.9,98,93,91,30.13,30.01,15,9,21,0.01
2013-4-27,75.9,72.8,70.7,73.0,71.1,69.8,98,94,87,30.05,29.90,14,8,18,0.03
2013-4-28,73.8,68.1,64.3,71.0,61.5,-99.9,99,91,87,30.02,29.82,26,13,35,0.53
2013-4-29,76.4,72.2,69.5,73.2,70.5,-99.9,99,95,90,29.90,29.74,22,8,28,0.03
2013-4-30,77.1,72.0,65.2,72.2,68.7,-99.9,96,90,82,29.80,29.67,15,8,28,0.03
2013-5-1,79.1,74.7,72.2,73.9,72.1,70.9,97,92,83,29.87,29.72,8,6,15,0.00
2013-5-2,79.8,67.1,52.7,71.7,59.2,43.0,97,76,60,30.23,29.79,26,13,42,0.00
2013-5-3,68.9,59.6,51.0,45.0,35.5,30.6,69,42,25,30.27,30.05,25,14,39,0.00
2013-5-4,73.8,66.7,55.7,59.4,51.7,42.5,77,59,39,30.08,29.89,11,6,17,0.00
2013-5-5,79.0,69.3,59.3,61.4,57.8,49.3,90,69,37,30.06,29.92,13,6,18,0.00
2013-5-6,74.9,70.5,63.8,63.7,61.0,57.5,83,72,59,30.10,29.94,11,5,16,0.00
2013-5-7,75.3,67.6,61.6,68.5,57.1,-99.9,96,78,71,30.05,29.94,13,-42,18,0.00
2013-5-8,76.5,69.4,70.4,71.9,59.3,-99.9,94,81,77,30.01,29.90,15,-52,23,0.00
2013-5-9,77.3,74.0,73.5,74.6,70.1,-99.9,97,92,90,29.93,29.78,15,-5,22,0.00
2013-5-10,75.3,73.8,68.5,74.2,72.0,66.8,98,94,89,29.92,29.79,23,9,25,0.04
2013-5-11,81.3,74.4,69.4,71.2,67.7,-99.9,97,83,64,30.08,29.91,19,9,26,0.12
2013-5-12,76.1,72.0,68.4,70.8,64.9,59.5,93,78,66,30.14,30.00,18,10,24,0.05
2013-5-13,76.5,68.4,64.1,68.6,56.7,-99.9,93,76,70,30.23,30.13,13,7,18,0.05
2013-5-14,78.2,74.5,72.1,72.8,69.9,-99.9,92,87,81,30.19,30.04,16,10,22,0.00
2013-5-15,77.0,74.5,73.1,74.1,72.4,71.3,98,93,89,30.06,29.88,23,11,34,0.17
2013-5-16,79.7,77.3,74.1,75.6,74.0,71.6,95,90,84,29.86,29.73,17,12,31,0.00
2013-5-17,80.5,77.4,74.9,76.1,74.6,72.8,95,91,84,29.89,29.77,16,12,24,0.00
2013-5-18,82.4,78.2,75.8,76.4,75.3,73.9,96,91,80,29.91,29.81,15,10,25,0.00
2013-5-19,81.1,78.3,76.7,76.8,75.3,74.5,94,91,84,29.84,29.74,15,12,27,0.00
2013-5-20,79.0,77.7,76.6,76.4,75.4,74.8,95,93,89,29.82,29.72,15,10,25,0.00
2013-5-21,83.0,79.1,77.3,77.3,76.3,75.2,96,91,82,29.79,29.68,16,10,24,0.00
2013-5-22,84.6,79.9,77.8,77.6,76.7,75.8,96,90,79,29.86,29.75,13,7,18,0.00
2013-5-23,81.8,79.4,77.7,78.0,76.8,75.8,95,92,87,29.97,29.83,14,10,19,0.00
2013-5-24,82.4,79.9,78.4,77.4,76.7,76.0,95,90,83,30.07,29.93,17,10,23,0.00
2013-5-25,80.3,79.1,78.2,77.1,76.2,75.0,93,91,88,30.08,29.98,16,13,25,0.00
2013-5-26,82.3,79.6,77.5,75.4,74.4,73.3,91,84,76,30.06,29.95,14,10,21,0.00
2013-5-27,82.3,79.8,77.9,76.9,75.7,74.3,92,87,82,29.98,29.85,19,12,26,0.00
2013-5-28,82.1,76.0,78.0,77.5,67.1,-99.9,91,84,83,29.89,29.77,20,-30,33,0.00
2013-5-29,79.4,79.1,78.6,76.5,76.0,75.6,92,91,89,29.81,29.78,19,14,29,0.00
2013-5-31,85.6,81.5,80.5,79.4,75.7,-99.9,92,86,80,29.86,29.76,17,12,24,0.00
2013-6-1,85.9,82.1,80.3,79.7,78.1,77.1,92,88,80,29.87,29.77,17,12,24,0.00
2013-6-2,86.3,80.8,73.6,80.1,75.5,-99.9,96,86,74,29.99,29.83,23,6,26,0.02
2013-6-3,84.0,71.8,72.6,75.6,54.5,-99.9,100,75,70,29.92,29.80,9,6,15,0.00
2013-6-4,86.5,79.1,77.8,83.3,68.3,-99.9,100,75,65,29.87,29.79,11,5,16,0.00
2013-6-5,87.4,82.7,79.2,78.0,76.3,74.6,89,81,71,29.83,29.75,11,6,18,0.00
2013-6-6,86.7,82.7,76.4,79.1,77.4,74.2,94,84,76,29.83,29.71,10,5,15,0.00
2013-6-7,85.2,79.2,70.2,78.6,74.3,68.7,97,85,71,29.90,29.80,24,9,37,0.03
2013-6-8,86.7,80.5,72.2,79.1,75.5,70.4,95,85,64,29.88,29.76,15,6,19,0.03
2013-6-9,88.9,58.3,81.5,80.0,20.7,-99.9,91,56,72,29.90,29.78,16,9,22,0.00
2013-6-10,86.8,71.3,81.0,79.5,38.5,-99.9,100,67,73,29.94,29.88,13,7,17,0.00
2013-6-11,87.6,83.8,81.0,80.4,78.0,75.2,88,83,76,30.00,29.91,13,8,19,0.00
2013-6-12,86.7,82.9,75.7,80.1,78.2,72.8,95,86,76,30.01,29.94,12,8,20,0.25
2013-6-15,83.4,83.1,82.9,79.0,78.6,78.0,88,86,85,29.93,29.91,11,8,18,0.00
2013-6-16,87.9,84.2,81.5,80.6,78.8,77.0,89,84,77,29.98,29.90,14,9,21,0.00
2013-6-17,88.8,82.6,81.6,80.7,75.8,-99.9,91,83,75,29.95,29.84,14,9,21,0.00
2013-6-18,88.2,79.7,80.9,79.9,68.5,-99.9,89,78,74,29.95,29.84,14,8,21,0.00
2013-6-19,87.9,83.9,81.0,79.0,77.9,76.8,89,82,70,29.97,29.88,14,9,22,0.00
2013-6-20,87.3,80.8,80.9,79.9,70.4,-99.9,90,81,76,30.02,29.91,13,9,22,0.00
2013-6-21,87.2,65.0,80.9,79.5,38.4,-99.9,91,66,76,30.05,29.97,12,8,17,0.00
2013-6-22,88.6,59.9,80.8,79.3,25.2,-99.9,91,59,69,30.01,29.90,12,8,21,0.00
2013-6-23,87.1,47.5,81.8,79.1,0.3,-99.9,89,46,73,29.97,29.88,14,9,22,0.00
2013-6-24,86.3,83.7,81.1,80.0,78.8,77.5,91,85,78,30.00,29.91,16,10,24,0.00
2013-6-25,85.9,79.4,79.9,79.6,70.3,-99.9,92,82,79,29.99,29.88,17,-36,25,0.00
2013-6-26,87.3,76.5,79.9,80.6,64.5,-99.9,92,80,78,29.95,29.88,15,-5,21,0.00
2013-6-27,86.7,82.7,79.8,79.1,76.7,-99.9,91,84,74,29.98,29.90,12,8,18,0.00
2013-6-28,88.6,72.1,80.2,79.7,52.9,-99.9,91,71,71,29.96,29.81,12,8,19,0.00
2013-6-29,91.0,80.2,78.9,81.2,67.9,-99.9,92,76,67,29.84,29.69,13,8,23,0.00
2013-6-30,89.3,79.9,69.1,77.7,73.0,67.6,98,80,58,29.89,29.73,33,6,43,0.48
2013-7-1,89.7,81.9,73.1,75.8,70.7,66.7,92,71,50,29.90,29.80,16,6,21,0.00
2013-7-3,89.0,83.2,79.1,76.3,74.3,70.9,86,75,63,29.98,29.87,10,6,17,0.00
2013-7-4,87.0,81.8,75.8,77.7,75.2,73.3,93,81,67,29.95,29.86,10,4,14,0.00
2013-7-5,86.3,83.0,78.7,77.6,76.3,74.3,87,80,71,29.93,29.82,12,6,17,0.00
2013-7-6,86.3,83.3,80.3,79.3,77.6,76.1,89,83,74,29.88,29.80,12,7,19,0.00
2013-7-7,88.1,83.9,80.9,79.2,77.4,75.2,89,81,70,29.96,29.88,16,7,20,0.00
2013-7-8,86.8,83.4,81.6,79.9,78.4,77.2,90,85,77,30.07,29.94,12,7,18,0.00
2013-7-9,86.7,84.2,81.5,79.8,78.8,77.9,91,84,76,30.09,30.00,11,6,18,0.00
2013-7-10,82.7,82.6,82.5,78.7,78.4,78.1,88,87,86,30.03,30.01,8,7,14,0.00
2013-7-11,88.5,85.9,82.4,79.5,77.9,76.2,86,77,68,29.97,29.88,11,7,17,0.00
2013-7-12,88.7,84.2,79.8,78.8,77.0,74.9,86,79,68,29.93,29.86,11,6,18,0.00
2013-7-13,89.2,84.1,77.1,78.7,76.1,73.1,91,77,60,29.94,29.83,11,5,19,0.00
2013-7-14,87.6,83.8,78.4,78.7,77.2,75.2,91,81,72,29.90,29.81,14,8,21,0.00
2013-7-15,86.9,83.6,80.5,79.0,77.4,72.8,88,82,74,29.94,29.83,15,10,22,0.14
2013-7-16,85.1,82.3,79.7,78.0,76.5,74.7,88,83,74,30.02,29.91,20,12,23,0.00
2013-7-17,81.9,77.7,74.2,77.4,74.7,72.6,96,91,82,30.10,30.00,14,6,20,0.25
2013-7-18,77.5,66.1,75.5,75.5,51.5,-99.9,97,83,90,30.07,30.02,7,-131,10,0.26
2013-7-19,87.2,84.9,81.3,78.8,77.6,76.4,88,79,73,30.00,29.89,13,7,19,0.00
2013-7-20,86.8,82.7,81.1,79.4,75.9,-99.9,88,82,74,29.94,29.83,12,-3,17,0.00
2013-7-21,88.4,81.7,82.9,80.9,72.5,-99.9,90,81,76,29.93,29.86,15,-30,24,0.02
2013-7-22,88.1,84.9,82.8,81.2,79.9,78.6,89,85,75,29.98,29.89,17,11,27,0.00
2013-7-23,86.4,83.4,82.2,79.7,77.8,76.9,88,83,75,29.99,29.93,14,11,24,0.00
2013-7-24,89.3,84.5,82.3,79.2,78.2,77.5,87,82,72,29.96,29.86,10,7,17,0.00
2013-7-25,89.1,84.6,81.5,81.0,79.1,76.8,90,84,75,29.99,29.93,13,8,21,0.00
2013-7-26,88.2,84.5,81.8,81.0,79.1,77.4,89,84,78,30.00,29.88,16,10,26,0.00
2013-7-27,88.4,83.9,81.4,80.4,79.0,78.2,92,85,74,29.94,29.79,13,9,23,0.00
2013-7-28,87.1,83.9,81.2,80.2,79.2,77.9,92,86,77,29.91,29.84,16,11,27,0.00
2013-7-29,86.8,83.9,81.2,79.6,78.8,77.4,91,85,75,30.03,29.91,17,10,24,0.00
2013-7-30,87.9,83.7,80.9,80.6,79.1,78.1,92,86,77,30.07,29.98,15,8,21,0.00
2013-7-31,88.4,83.6,79.8,80.1,78.5,76.6,91,85,74,30.06,29.93,11,7,17,0.00
2013-8-1,90.3,84.4,80.6,79.0,78.1,76.0,92,82,66,29.99,29.89,11,7,16,0.00
2013-8-2,88.9,85.3,82.4,79.6,78.5,76.8,89,80,70,29.96,29.88,12,7,19,0.00
2013-8-3,89.1,85.7,81.8,80.7,79.6,76.8,90,82,74,29.99,29.92,12,9,19,0.00
2013-8-4,88.4,84.8,82.1,80.7,79.6,78.4,92,85,75,30.03,29.94,13,8,22,0.00
2013-8-5,88.2,84.6,81.9,80.5,79.6,78.6,91,85,75,30.01,29.89,15,10,23,0.00
2013-8-6,88.0,84.1,81.6,81.0,79.8,79.0,93,87,78,29.94,29.82,16,11,25,0.00
2013-8-7,88.2,83.6,81.1,80.9,78.8,-99.9,92,87,76,29.91,29.80,16,11,25,0.00
2013-8-8,88.2,83.6,80.3,80.8,79.2,78.1,93,87,77,29.89,29.80,15,9,22,0.00
2013-8-9,89.3,84.1,80.3,80.5,78.8,77.4,92,84,70,29.93,29.84,10,6,16,0.00
2013-8-10,88.1,81.3,82.3,80.8,73.1,-99.9,92,84,76,29.98,29.90,12,7,17,0.00
2013-8-11,88.2,79.7,80.8,80.3,67.1,-99.9,92,78,71,30.00,29.93,17,6,20,0.00
2013-8-12,88.6,84.4,80.6,80.6,78.8,76.7,90,83,71,30.04,29.94,10,7,16,0.00
2013-8-13,89.3,85.2,82.1,80.4,79.7,78.7,91,84,72,30.01,29.87,13,9,21,0.00
2013-8-14,90.5,75.9,81.9,80.4,59.8,-99.9,91,74,64,29.96,29.85,16,10,22,0.00
2013-8-15,88.6,78.4,81.4,80.2,65.5,-99.9,90,77,71,29.96,29.87,13,7,19,0.00
2013-8-16,89.6,84.5,77.5,80.3,78.1,74.5,92,81,72,29.97,29.84,13,7,22,0.03
2013-8-17,87.6,81.5,73.9,78.4,75.2,72.5,96,82,67,29.97,29.87,13,7,22,0.03
2013-8-18,87.2,83.7,75.7,76.7,74.0,69.8,93,73,59,29.99,29.92,12,7,18,0.00
2013-8-19,88.6,83.1,77.8,77.9,74.4,-99.9,90,78,67,30.00,29.88,10,-3,17,0.00
2013-8-20,83.0,80.0,74.6,78.1,75.3,71.9,94,86,81,30.00,29.89,11,5,21,0.56
2013-8-21,87.2,84.2,79.6,79.7,78.0,73.6,89,82,75,30.01,29.94,11,6,16,0.56
2013-8-22,87.3,84.2,81.8,80.1,78.3,76.9,90,83,73,30.01,29.90,9,5,12,0.36
2013-8-23,88.3,85.5,83.7,79.8,78.1,76.2,86,79,69,29.96,29.86,14,8,19,0.00
2013-8-24,87.0,83.5,78.5,80.6,78.4,75.8,97,85,75,29.98,29.89,16,9,24,0.12
2013-8-25,87.7,83.3,77.9,79.8,77.8,75.0,94,84,73,30.01,29.93,13,8,18,0.00
2013-8-26,83.4,79.1,74.9,78.6,75.7,73.2,96,90,80,30.06,29.95,14,5,14,0.42
2013-8-27,87.1,84.1,82.1,79.6,78.4,76.4,90,83,73,30.05,29.96,11,8,17,0.42
2013-8-28,87.3,83.6,79.4,79.4,77.5,74.5,88,82,71,30.05,29.96,16,7,20,0.00
2013-8-29,89.4,84.4,79.9,79.5,77.5,73.4,90,80,60,30.03,29.93,9,5,14,0.00
2013-8-30,91.0,85.0,78.9,80.1,77.4,75.0,92,78,63,30.00,29.87,9,5,14,0.00
2013-8-31,89.7,84.4,77.5,78.2,76.6,74.3,90,78,63,29.92,29.82,10,6,15,0.00
2013-9-1,90.2,85.5,81.2,80.6,78.6,76.2,86,80,69,29.89,29.80,12,7,20,0.00
2013-9-2,89.9,85.7,83.1,81.1,78.7,71.8,87,80,64,29.93,29.82,11,6,17,0.00
2013-9-3,88.3,84.2,77.9,79.9,77.6,74.7,94,81,69,29.97,29.86,9,5,15,0.00
2013-9-4,89.3,84.5,77.5,79.4,77.4,74.3,93,80,62,30.00,29.90,10,6,15,0.00
2013-9-5,87.2,84.7,83.2,79.2,77.8,76.4,85,80,72,30.02,29.94,13,8,18,0.01
2013-9-6,87.8,83.0,74.6,80.5,77.3,73.1,98,83,74,30.04,29.92,15,4,22,0.20
2013-9-7,86.0,82.1,75.9,78.9,77.1,74.5,96,85,76,29.98,29.87,12,6,15,0.63
2013-9-8,83.7,80.5,74.0,77.9,75.9,70.7,97,86,80,29.94,29.84,18,7,25,0.92
2013-9-9,83.6,81.5,75.1,77.5,76.1,73.4,97,84,78,29.92,29.84,18,11,29,0.15
2013-9-10,85.6,83.5,81.6,79.1,77.0,74.9,86,81,73,29.98,29.88,16,10,22,0.03
2013-9-11,86.7,83.6,78.1,79.5,77.7,74.9,93,83,75,30.01,29.93,14,8,22,0.10
2013-9-12,87.2,83.6,78.5,79.2,77.1,74.7,95,81,71,29.98,29.86,17,9,21,0.14
2013-9-13,86.5,82.3,75.8,78.2,76.4,73.6,95,83,72,29.88,29.77,17,10,23,0.00
2013-9-14,85.2,83.2,81.8,78.4,77.5,76.5,86,83,76,29.85,29.77,16,10,21,0.00
2013-9-15,85.9,83.3,77.3,79.3,78.1,74.9,97,84,78,29.90,29.81,21,14,34,0.17
2013-9-16,84.8,82.3,77.0,79.5,77.6,-99.9,96,87,79,29.94,29.85,20,13,27,0.05
2013-9-17,86.1,83.1,81.1,79.8,77.3,-99.9,91,84,78,29.97,29.87,14,9,20,0.05
2013-9-18,85.8,82.8,81.3,79.5,75.3,-99.9,88,83,78,29.93,29.84,12,7,19,0.00
2013-9-19,86.6,83.6,81.9,80.1,77.4,-99.9,89,84,76,29.88,29.77,16,8,21,0.00
2013-9-20,86.9,82.8,75.5,81.0,79.1,74.0,98,89,80,29.79,29.67,15,9,27,0.17
2013-9-21,77.7,74.7,72.8,75.3,69.1,-99.9,97,87,77,29.79,29.68,17,9,27,0.44
2013-9-22,83.9,76.7,70.8,72.4,65.3,-99.9,88,71,43,29.79,29.70,16,8,24,0.00
2013-9-23,82.8,76.7,70.9,76.0,71.1,66.9,92,83,76,29.76,29.69,12,6,20,0.00
2013-9-25,89.6,84.7,81.4,75.7,73.7,69.9,82,70,54,29.80,29.76,8,6,13,0.00
2013-9-26,88.6,83.2,80.8,78.9,75.7,-99.9,87,80,70,29.84,29.78,13,7,18,0.00
2013-9-27,86.5,81.3,81.9,81.2,73.1,-99.9,91,84,81,29.87,29.79,15,10,21,0.00
2013-9-28,85.7,80.5,82.5,80.7,73.4,-99.9,92,85,83,29.90,29.83,14,9,20,0.00
2013-9-29,87.5,80.4,75.3,78.0,70.6,-99.9,93,78,68,29.96,29.84,10,-8,18,0.08
2013-9-30,81.7,77.4,72.4,76.0,74.3,71.5,97,90,82,29.87,29.84,7,5,10,1.72
2013-10-1,86.2,82.2,74.6,80.2,77.8,73.1,98,87,79,29.87,29.79,14,8,21,0.27
2013-10-2,87.1,83.0,78.8,79.1,76.8,-99.9,91,83,73,29.91,29.82,13,8,19,0.04
2013-10-3,86.1,81.3,79.7,78.0,72.3,-99.9,89,78,67,29.90,29.82,12,8,19,0.00
2013-10-4,85.7,76.1,81.0,78.3,62.5,-99.9,88,76,77,29.88,29.82,12,8,18,0.00
2013-10-5,85.5,61.7,75.1,78.4,28.1,-99.9,88,58,77,29.92,29.81,11,6,17,0.00
2013-10-6,74.7,48.1,56.3,67.0,17.3,-99.9,97,65,70,30.08,29.92,16,12,27,0.17
2013-10-11,83.7,82.0,81.4,79.5,79.1,78.3,93,91,86,29.86,29.80,12,9,19,0.00
2013-10-12,85.8,81.8,80.1,80.7,77.9,-99.9,97,90,82,29.97,29.85,14,-1,20,0.00
2013-10-13,84.1,81.1,78.3,78.9,77.8,75.6,93,90,82,30.06,29.96,19,7,25,0.10
2013-10-14,83.7,82.2,80.3,76.4,75.0,73.8,86,79,75,30.01,29.89,15,11,21,0.00
2013-10-15,85.0,82.0,79.7,75.6,74.6,73.5,84,78,71,29.94,29.83,11,8,19,0.00
2013-10-16,80.4,68.2,68.1,76.4,52.2,-99.9,95,77,83,29.96,29.84,11,5,18,0.00
2013-10-18,76.1,75.0,72.2,74.2,73.3,71.0,96,95,93,29.90,29.83,14,12,18,0.01
2013-10-22,69.1,64.9,61.5,68.5,62.0,59.1,98,90,79,30.07,29.94,12,9,21,0.46
2013-10-24,77.7,75.7,73.2,68.2,65.6,62.4,84,71,62,30.17,30.11,10,7,14,0.00
2013-10-25,77.9,75.7,70.1,72.0,69.4,66.6,92,81,73,30.25,30.15,15,9,21,0.00
2013-10-26,79.6,76.9,74.9,72.2,70.2,68.5,89,80,73,30.16,30.02,12,8,17,0.00
2013-10-27,82.4,76.1,70.0,74.4,72.3,68.5,97,88,73,30.05,29.94,13,3,18,0.07
2013-10-28,80.5,77.7,75.3,74.6,73.4,72.6,92,87,78,30.04,29.95,14,8,20,0.07
2013-10-29,81.5,78.7,76.5,76.5,74.6,73.2,93,88,80,30.06,29.95,14,10,21,0.00
2013-10-30,81.7,79.4,77.6,78.3,77.2,76.1,96,93,88,29.97,29.80,14,10,24,0.00
2013-10-31,85.4,79.4,76.3,80.2,76.9,71.6,99,92,64,29.83,29.74,13,7,26,0.06
2013-11-3,54.8,54.8,54.8,50.4,50.4,50.4,85,85,85,30.12,30.12,3,3,4,0.00
2013-11-5,76.3,75.9,75.4,73.5,73.4,73.2,93,92,91,29.95,29.92,10,6,14,0.00
2013-11-6,82.8,72.1,57.8,75.9,68.4,51.1,96,89,78,30.21,29.93,18,6,29,0.03
2013-11-7,57.9,55.9,54.4,51.1,47.0,43.9,78,72,67,30.32,30.20,16,12,26,0.03
2013-11-9,73.1,69.3,63.6,67.1,65.2,60.9,93,87,78,30.13,30.06,12,6,17,0.00
2013-11-10,67.7,66.3,62.4,65.3,61.8,57.1,97,86,69,30.23,30.10,23,8,30,0.00
2013-11-11,66.3,65.4,64.9,59.9,57.6,55.4,80,76,71,30.17,30.13,11,6,14,0.00
2013-11-14,64.1,60.8,56.0,60.2,56.8,48.9,93,87,76,30.25,29.99,11,4,15,0.00
2013-11-15,72.9,63.7,56.2,66.4,59.2,-99.9,97,90,76,30.00,29.86,7,2,10,0.00
2013-11-16,75.0,70.9,65.5,73.2,69.6,64.3,98,96,92,29.88,29.76,10,3,15,0.00
2013-11-17,77.7,73.8,70.9,74.2,71.9,70.1,98,94,87,29.87,29.76,10,5,14,0.00
2013-11-18,74.1,74.1,74.1,73.5,73.5,73.5,98,98,98,29.98,29.98,1,1,1,0.00
2013-11-19,69.3,67.8,66.5,65.5,63.9,61.2,91,87,82,30.04,29.94,19,9,24,0.00
2013-11-20,75.4,66.0,67.3,72.7,56.0,-99.9,97,86,89,29.94,29.82,12,-77,15,0.00
2013-11-22,43.1,41.8,40.3,42.6,41.3,39.8,98,98,97,30.27,30.20,16,12,27,0.00
2013-11-23,41.5,40.7,40.1,40.2,39.7,39.4,98,97,95,30.30,30.25,15,13,23,0.00
2013-11-26,50.5,45.7,41.8,39.2,38.1,36.9,85,75,62,30.32,30.15,18,10,33,0.01
2013-11-27,52.0,43.0,37.1,37.5,30.7,-99.9,88,66,39,30.43,30.32,15,5,22,0.00
2013-11-28,56.1,48.2,39.4,49.8,41.6,-99.9,93,79,57,30.41,30.31,11,7,15,0.00
2013-11-29,59.7,51.4,49.0,55.4,49.2,47.3,95,92,85,30.41,30.35,17,11,23,0.00
2013-11-30,68.5,63.7,60.1,61.1,59.1,56.8,90,85,75,30.22,30.16,7,2,10,0.00
2013-12-1,74.3,60.2,56.2,65.5,50.0,-99.9,96,83,73,30.16,29.93,7,-68,11,0.00
2013-12-2,71.6,65.5,60.1,66.5,63.2,59.0,98,92,84,29.92,29.71,10,4,15,0.00
2013-12-3,71.8,67.3,63.2,68.1,64.7,62.0,97,91,87,29.74,29.62,10,7,15,0.00
2013-12-4,75.4,60.0,66.0,70.9,41.5,-99.9,90,74,86,29.77,29.67,11,-145,17,0.00
2013-12-5,71.7,56.8,40.5,71.1,52.7,-99.9,99,90,85,29.97,29.75,17,-6,25,0.01
2013-12-6,46.4,40.4,35.7,39.2,36.0,31.0,93,84,74,30.34,29.95,16,12,28,0.00
2013-12-7,34.8,34.4,33.8,32.1,31.0,29.4,91,87,83,30.40,30.21,11,8,18,0.00
2013-12-8,46.8,41.2,34.1,44.9,38.4,31.8,93,90,83,30.22,30.02,9,5,13,0.00
2013-12-9,49.9,46.0,40.2,49.4,44.8,37.2,98,95,89,30.28,30.00,13,8,25,0.00
2013-12-10,47.1,42.0,36.0,37.4,32.8,30.1,89,71,52,30.44,30.28,17,8,29,0.00
2013-12-11,53.6,49.1,44.2,46.0,40.7,35.1,80,73,67,30.47,30.28,9,5,14,0.00
2013-12-12,54.2,48.8,43.3,44.2,40.7,37.5,81,74,62,30.52,30.27,13,8,22,0.00
2013-12-13,64.0,54.5,45.3,60.7,49.8,40.1,95,84,78,30.27,29.84,9,3,12,0.00
2013-12-14,69.5,55.3,43.4,55.3,47.3,37.9,91,76,41,30.30,29.86,20,7,31,0.00
2013-12-15,56.6,44.5,39.3,44.2,29.9,-99.9,88,67,43,30.40,30.27,10,-55,15,0.00
2013-12-16,60.2,50.3,38.5,52.0,44.1,-99.9,94,81,53,30.33,30.21,6,1,9,0.00
2013-12-17,64.0,55.1,43.9,55.9,51.9,43.1,98,90,70,30.31,30.21,7,2,8,0.00
2013-12-18,66.8,59.8,51.3,59.5,55.9,50.2,96,87,72,30.27,30.03,7,3,10,0.01
2013-12-19,69.9,65.8,62.6,66.3,63.5,59.5,98,93,88,30.03,29.82,15,6,23,0.00
2013-12-20,72.5,68.1,63.5,70.4,66.9,62.9,99,96,92,29.82,29.60,16,8,28,0.00
2013-12-21,70.4,61.8,61.7,68.9,49.8,-99.9,98,80,65,29.78,29.55,19,-68,27,0.00
2013-12-22,70.5,60.2,44.3,58.3,48.2,35.7,91,67,38,30.31,29.77,17,10,26,0.00
2013-12-23,57.0,45.9,39.3,39.1,32.8,-99.9,83,64,37,30.50,30.30,15,8,23,0.00
2013-12-24,58.2,51.5,39.4,53.8,45.7,35.5,92,81,70,30.50,30.21,14,6,20,0.00
2013-12-25,64.2,52.3,52.6,58.8,40.0,-99.9,98,83,81,30.29,30.18,19,6,19,0.02
2013-12-26,56.0,53.5,50.1,54.3,50.3,47.4,98,89,77,30.35,30.26,21,8,21,0.03
2013-12-27,55.1,52.3,49.5,51.2,48.3,44.9,96,86,79,30.37,30.25,11,4,16,0.11
2013-12-28,59.7,46.9,47.6,48.6,29.8,-99.9,93,69,32,30.26,30.01,7,-97,8,0.00
2013-12-29,61.6,55.4,44.9,55.9,50.5,42.6,94,84,62,30.11,29.97,26,4,26,0.00
2013-12-30,52.0,43.3,40.3,46.4,36.9,34.7,85,78,71,30.37,30.09,27,9,27,0.00
2013-12-31,46.7,43.9,41.9,44.0,38.8,34.6,94,82,71,30.42,30.21,17,4,17,0.02
2014-1-1,58.2,52.1,45.5,57.6,50.5,43.9,98,94,87,30.22,29.98,11,3,11,0.01
2014-1-2,58.5,49.4,39.9,57.9,38.2,28.3,98,67,44,30.42,30.03,31,10,31,0.01